Shindler, South Dakota
Current Conditions -  °F | °C
As of 7:33 PM on Wednesday 22 Oct 2014 (Local Time) from KFSD Reporting Station
Overcast Overcast  
Wind Chill: 14°   Ceiling: 4300
Heat Index: 14°   Visibility: 9mi
Dew Point: 13°   Wind: 3mph
Humidity: 93%   Direction: NA
Pressure: 29.98"   Gusts: NA
Location:  43.5199°N, 96.7933°W
Report Text: KFSD 230033Z VRB03KT 9SM SCT004 BKN043 OVC075 14/13 A2998 RMK AO2 T01440133
Loading
Personal Weather Stations






























Interactive Weather Map
Tropical Storm Tracking
New forecast layout! Learn more

10-Day Weather Forecast

Advertisements
Track Severe Weather on mobile